createdAt,value
2022-09-30T00:01:06.112Z,97598.53
2022-09-30T00:03:32.589Z,97588.59
2022-09-30T00:06:05.645Z,97598.00
2022-09-30T00:08:34.707Z,97599.06
2022-09-30T00:11:05.570Z,97605.25
2022-09-30T00:13:34.239Z,97597.72
2022-09-30T00:16:01.628Z,97606.59
2022-09-30T00:18:28.405Z,97604.72
2022-09-30T00:20:55.325Z,97605.25
2022-09-30T00:23:22.866Z,97606.06
2022-09-30T00:25:49.970Z,97608.78
2022-09-30T00:28:17.283Z,97608.75
2022-09-30T00:30:43.777Z,97612.25
2022-09-30T00:33:10.220Z,97615.47
2022-09-30T00:35:38.084Z,97621.41
2022-09-30T00:38:04.725Z,97623.53
2022-09-30T00:40:31.487Z,97633.75
2022-09-30T00:42:59.013Z,97623.03
2022-09-30T00:45:28.781Z,97622.50
2022-09-30T00:48:19.376Z,97620.88
2022-09-30T00:50:49.581Z,97623.03
2022-09-30T00:53:42.203Z,97620.88
2022-09-30T00:56:17.121Z,97620.34
2022-09-30T00:58:56.366Z,97627.88
2022-09-30T01:01:24.129Z,97623.06
2022-09-30T01:03:54.441Z,97626.78
2022-09-30T01:06:23.296Z,97628.94
2022-09-30T01:08:50.402Z,97633.50
2022-09-30T01:11:17.288Z,97635.91
2022-09-30T01:13:49.940Z,97642.13
2022-09-30T01:16:53.913Z,97640.78
2022-09-30T01:19:37.319Z,97634.31
2022-09-30T01:22:03.675Z,97641.34
2022-09-30T01:25:06.678Z,97636.50
2022-09-30T01:27:57.102Z,97645.66
2022-09-30T01:30:33.895Z,97635.16
2022-09-30T01:33:19.554Z,97643.22
2022-09-30T01:36:10.385Z,97639.72
2022-09-30T01:39:11.021Z,97638.66
2022-09-30T01:41:49.562Z,97644.56
2022-09-30T01:44:28.099Z,97645.66
2022-09-30T01:47:18.658Z,97646.44
2022-09-30T01:50:01.309Z,97646.19
2022-09-30T01:52:42.448Z,97645.06
2022-09-30T01:55:46.127Z,97638.94
2022-09-30T01:58:21.483Z,97637.81
2022-09-30T02:00:52.722Z,97641.88
2022-09-30T02:03:26.777Z,97634.88
2022-09-30T02:06:02.359Z,97645.09
2022-09-30T02:08:43.659Z,97639.19
2022-09-30T02:11:18.323Z,97639.19
2022-09-30T02:13:59.635Z,97654.00
2022-09-30T02:16:32.860Z,97655.34
2022-09-30T02:19:18.224Z,97656.94
2022-09-30T02:21:51.516Z,97662.34
2022-09-30T02:24:24.543Z,97664.22
2022-09-30T02:26:54.807Z,97664.47
2022-09-30T02:29:27.735Z,97654.78
2022-09-30T02:32:00.076Z,97658.03
2022-09-30T02:34:40.357Z,97657.47
2022-09-30T02:37:16.151Z,97654.81
2022-09-30T02:39:54.098Z,97654.25
2022-09-30T02:42:26.715Z,97660.19
2022-09-30T02:44:56.991Z,97657.50
2022-09-30T02:47:26.947Z,97667.47
2022-09-30T02:50:12.483Z,97662.88
2022-09-30T02:52:54.230Z,97666.09
2022-09-30T02:55:49.125Z,97668.25
2022-09-30T02:58:19.965Z,97667.16
2022-09-30T03:00:46.566Z,97670.94
2022-09-30T03:03:19.919Z,97668.25
2022-09-30T03:05:46.435Z,97670.41
2022-09-30T03:08:12.982Z,97672.03
2022-09-30T03:10:39.987Z,97670.41
2022-09-30T03:13:12.684Z,97670.94
2022-09-30T03:15:57.168Z,97670.41
2022-09-30T03:19:06.402Z,97671.22
2022-09-30T03:21:50.924Z,97674.16
2022-09-30T03:24:26.715Z,97677.66
2022-09-30T03:27:18.035Z,97674.72
2022-09-30T03:30:01.844Z,97675.78
2022-09-30T03:32:48.952Z,97682.53
2022-09-30T03:35:28.116Z,97681.16
2022-09-30T03:38:13.834Z,97680.94
2022-09-30T03:40:49.791Z,97677.94
2022-09-30T03:43:27.471Z,97677.38
2022-09-30T03:46:10.233Z,97677.94
2022-09-30T03:48:38.070Z,97681.16
2022-09-30T03:51:05.993Z,97676.31
2022-09-30T03:53:39.006Z,97682.78
2022-09-30T03:56:05.628Z,97683.84
2022-09-30T03:58:32.069Z,97691.94
2022-09-30T04:00:59.034Z,97696.75
2022-09-30T04:03:27.911Z,97702.97
2022-09-30T04:05:54.361Z,97704.56
2022-09-30T04:08:20.889Z,97713.69
2022-09-30T04:10:47.330Z,97716.66
2022-09-30T04:13:13.870Z,97719.88
2022-09-30T04:15:40.660Z,97722.56
2022-09-30T04:18:07.556Z,97721.75
2022-09-30T04:20:34.005Z,97718.03
2022-09-30T04:23:01.550Z,97710.72
2022-09-30T04:25:28.787Z,97716.13
2022-09-30T04:27:56.165Z,97713.94
2022-09-30T04:30:26.394Z,97714.50
2022-09-30T04:32:53.821Z,97721.75
2022-09-30T04:35:20.619Z,97717.19
2022-09-30T04:37:48.002Z,97719.06
2022-09-30T04:40:16.150Z,97719.31
2022-09-30T04:42:43.316Z,97721.50
2022-09-30T04:45:11.310Z,97728.19
2022-09-30T04:47:37.850Z,97723.91
2022-09-30T04:50:05.674Z,97727.41
2022-09-30T04:52:32.103Z,97731.16
2022-09-30T04:54:58.774Z,97730.59
2022-09-30T04:57:25.454Z,97730.34
2022-09-30T04:59:51.980Z,97731.69
2022-09-30T05:02:18.448Z,97726.81
2022-09-30T05:04:45.037Z,97730.88
2022-09-30T05:07:11.602Z,97736.00
2022-09-30T05:09:38.208Z,97737.63
2022-09-30T05:12:04.729Z,97740.59
2022-09-30T05:14:31.202Z,97742.78
2022-09-30T05:16:57.604Z,97747.81
2022-09-30T05:19:24.247Z,97758.03
2022-09-30T05:21:52.121Z,97754.78
2022-09-30T05:24:18.732Z,97755.31
2022-09-30T05:26:45.244Z,97758.84
2022-09-30T05:29:12.062Z,97753.97
2022-09-30T05:31:38.597Z,97766.66
2022-09-30T05:34:05.145Z,97764.47
2022-09-30T05:36:31.574Z,97774.63
2022-09-30T05:38:57.981Z,97770.53
2022-09-30T05:41:24.703Z,97773.00
2022-09-30T05:43:51.462Z,97780.53
2022-09-30T05:46:19.941Z,97783.78
2022-09-30T05:48:46.926Z,97789.25
2022-09-30T05:51:13.803Z,97786.84
2022-09-30T05:53:41.180Z,97788.47
2022-09-30T05:56:08.731Z,97799.78
2022-09-30T05:58:36.339Z,97804.00
2022-09-30T06:01:13.230Z,97797.81
2022-09-30T06:03:41.693Z,97796.09
2022-09-30T06:06:08.338Z,97798.22
2022-09-30T06:08:35.120Z,97800.94
2022-09-30T06:11:02.073Z,97811.72
2022-09-30T06:13:28.841Z,97818.19
2022-09-30T06:15:57.133Z,97817.09
2022-09-30T06:18:27.045Z,97819.31
2022-09-30T06:21:00.243Z,97826.78
2022-09-30T06:23:27.230Z,97827.28
2022-09-30T06:25:54.890Z,97833.19
2022-09-30T06:28:21.837Z,97831.97
2022-09-30T06:30:48.666Z,97829.25
2022-09-30T06:33:15.832Z,97823.69
2022-09-30T06:35:42.840Z,97831.22
2022-09-30T06:38:10.595Z,97835.50
2022-09-30T06:40:38.027Z,97834.34
2022-09-30T06:43:05.184Z,97838.09
2022-09-30T06:45:33.426Z,97831.41
2022-09-30T06:48:01.811Z,97835.44
2022-09-30T06:50:29.166Z,97846.75
2022-09-30T06:53:00.694Z,97851.66
2022-09-30T06:55:28.792Z,97862.47
2022-09-30T06:57:56.181Z,97854.94
2022-09-30T07:00:24.232Z,97856.28
2022-09-30T07:02:50.738Z,97855.53
2022-09-30T07:05:17.506Z,97860.38
2022-09-30T07:07:43.932Z,97862.78
2022-09-30T07:10:11.284Z,97868.16
2022-09-30T07:12:43.720Z,97871.16
2022-09-30T07:15:13.733Z,97865.50
2022-09-30T07:17:40.797Z,97872.47
2022-09-30T07:20:08.323Z,97874.34
2022-09-30T07:22:34.773Z,97873.84
2022-09-30T07:25:05.291Z,97875.47
2022-09-30T07:27:33.568Z,97885.16
2022-09-30T07:30:12.575Z,97884.63
2022-09-30T07:32:40.849Z,97888.94
2022-09-30T07:35:07.566Z,97884.13
2022-09-30T07:37:36.304Z,97887.91
2022-09-30T07:40:07.466Z,97896.56
2022-09-30T07:42:37.082Z,97899.28
2022-09-30T07:45:04.463Z,97903.31
2022-09-30T07:47:30.888Z,97906.03
2022-09-30T07:49:57.618Z,97896.31
2022-09-30T07:52:24.057Z,97908.50
2022-09-30T07:54:50.926Z,97906.34
2022-09-30T07:57:17.516Z,97918.19
2022-09-30T07:59:44.131Z,97919.28
2022-09-30T08:02:18.290Z,97927.84
2022-09-30T08:04:45.592Z,97930.56
2022-09-30T08:07:14.317Z,97925.19
2022-09-30T08:09:40.860Z,97930.56
2022-09-30T08:12:07.390Z,97939.16
2022-09-30T08:14:33.910Z,97939.13
2022-09-30T08:17:00.917Z,97940.47
2022-09-30T08:19:29.368Z,97940.75
2022-09-30T08:21:56.389Z,97954.78
2022-09-30T08:24:24.419Z,97955.38
2022-09-30T08:26:52.104Z,97963.69
2022-09-30T08:29:35.850Z,97967.19
2022-09-30T08:32:05.527Z,97978.78
2022-09-30T08:34:35.634Z,97981.25
2022-09-30T08:37:08.417Z,97985.56
2022-09-30T08:39:36.621Z,97985.31
2022-09-30T08:42:36.623Z,97992.06
2022-09-30T08:45:13.336Z,97995.84
2022-09-30T08:47:50.485Z,97986.69
2022-09-30T08:50:36.142Z,97997.47
2022-09-30T08:53:11.530Z,98001.78
2022-09-30T08:55:46.352Z,97995.06
2022-09-30T08:58:38.790Z,97999.09
2022-09-30T09:01:29.224Z,97999.13
2022-09-30T09:03:57.958Z,98003.44
2022-09-30T09:06:36.225Z,98006.41
2022-09-30T09:09:32.961Z,98012.91
2022-09-30T09:12:22.668Z,98019.91
2022-09-30T09:15:09.233Z,98015.31
2022-09-30T09:18:18.770Z,98016.91
2022-09-30T09:20:51.214Z,98014.25
2022-09-30T09:23:17.674Z,98020.97
2022-09-30T09:25:46.327Z,98021.00
2022-09-30T09:28:36.976Z,98021.78
2022-09-30T09:31:04.545Z,98019.63
2022-09-30T09:33:35.236Z,98026.38
2022-09-30T09:36:12.863Z,98020.97
2022-09-30T09:38:39.251Z,98032.59
2022-09-30T09:41:42.325Z,98025.84
2022-09-30T09:44:08.668Z,98026.66
2022-09-30T09:47:07.899Z,98027.47
2022-09-30T09:49:41.624Z,98032.28
2022-09-30T09:52:26.570Z,98027.13
2022-09-30T09:54:56.715Z,98031.88
2022-09-30T09:57:27.709Z,98045.66
2022-09-30T10:00:31.687Z,98043.81
2022-09-30T10:03:04.105Z,98043.28
2022-09-30T10:05:39.349Z,98050.84
2022-09-30T10:08:16.853Z,98047.34
2022-09-30T10:10:47.270Z,98047.03
2022-09-30T10:13:31.817Z,98049.00
2022-09-30T10:16:00.917Z,98053.81
2022-09-30T10:18:34.371Z,98057.28
2022-09-30T10:21:05.593Z,98052.31
2022-09-30T10:23:38.022Z,98048.75
2022-09-30T10:26:18.013Z,98056.34
2022-09-30T10:28:56.189Z,98063.09
2022-09-30T10:31:25.816Z,98057.56
2022-09-30T10:34:18.116Z,98068.00
2022-09-30T10:36:45.684Z,98074.56
2022-09-30T10:39:26.761Z,98068.22
2022-09-30T10:42:25.953Z,98071.03
2022-09-30T10:44:57.013Z,98066.22
2022-09-30T10:47:26.811Z,98067.81
2022-09-30T10:50:13.163Z,98068.75
2022-09-30T10:52:47.370Z,98067.22
2022-09-30T10:55:19.931Z,98065.06
2022-09-30T10:57:47.611Z,98066.13
2022-09-30T11:00:15.862Z,98072.44
2022-09-30T11:03:18.323Z,98064.03
2022-09-30T11:05:48.145Z,98070.03
2022-09-30T11:08:26.708Z,98076.25
2022-09-30T11:11:10.178Z,98082.91
2022-09-30T11:13:54.652Z,98084.94
2022-09-30T11:16:45.213Z,98083.78
2022-09-30T11:19:24.401Z,98077.78
2022-09-30T11:22:09.228Z,98074.63
2022-09-30T11:24:41.412Z,98080.81
2022-09-30T11:27:38.181Z,98068.91
2022-09-30T11:30:21.290Z,98068.63
2022-09-30T11:33:14.721Z,98076.25
2022-09-30T11:35:56.186Z,98066.94
2022-09-30T11:38:44.165Z,98072.41
2022-09-30T11:41:26.815Z,98080.53
2022-09-30T11:44:15.182Z,98074.63
2022-09-30T11:46:47.683Z,98072.38
2022-09-30T11:49:52.454Z,98077.72
2022-09-30T11:52:46.602Z,98070.59
2022-09-30T11:55:19.160Z,98073.00
2022-09-30T11:58:08.456Z,98068.47
2022-09-30T12:00:51.422Z,98072.97
2022-09-30T12:03:30.049Z,98075.94
2022-09-30T12:06:02.375Z,98063.72
2022-09-30T12:08:31.702Z,98063.44
2022-09-30T12:11:09.230Z,98055.25
2022-09-30T12:13:39.576Z,98060.72
2022-09-30T12:16:21.893Z,98059.69
2022-09-30T12:19:00.764Z,98062.63
2022-09-30T12:21:37.523Z,98071.63
2022-09-30T12:24:17.556Z,98071.75
2022-09-30T12:26:46.022Z,98065.19
2022-09-30T12:29:35.846Z,98063.06
2022-09-30T12:32:29.710Z,98071.13
2022-09-30T12:35:15.828Z,98067.22
2022-09-30T12:37:45.375Z,98064.81
2022-09-30T12:40:56.089Z,98065.84
2022-09-30T12:44:14.647Z,98070.84
2022-09-30T12:47:01.955Z,98067.16
2022-09-30T12:49:31.323Z,98069.47
2022-09-30T12:52:05.134Z,98061.84
2022-09-30T12:54:37.469Z,98065.31
2022-09-30T12:57:09.236Z,98062.19
2022-09-30T12:59:58.067Z,98069.16
2022-09-30T13:02:41.814Z,98069.47
2022-09-30T13:05:26.782Z,98076.31
2022-09-30T13:08:05.602Z,98075.69
2022-09-30T13:10:33.153Z,98077.25
2022-09-30T13:13:11.391Z,98077.94
2022-09-30T13:15:43.237Z,98075.91
2022-09-30T13:18:27.964Z,98077.50
2022-09-30T13:21:08.196Z,98077.59
2022-09-30T13:23:57.656Z,98075.53
2022-09-30T13:26:33.634Z,98079.34
2022-09-30T13:29:00.351Z,98084.84
2022-09-30T13:31:32.298Z,98082.22
2022-09-30T13:34:01.911Z,98082.88
2022-09-30T13:36:52.968Z,98087.19
2022-09-30T13:39:28.149Z,98085.69
2022-09-30T13:42:06.714Z,98085.97
2022-09-30T13:44:33.072Z,98084.81
2022-09-30T13:47:08.595Z,98088.22
2022-09-30T13:49:49.554Z,98079.56
2022-09-30T13:52:27.441Z,98081.47
2022-09-30T13:54:56.314Z,98088.13
2022-09-30T13:57:36.329Z,98088.25
2022-09-30T14:00:07.390Z,98089.66
2022-09-30T14:03:11.268Z,98089.50
2022-09-30T14:05:44.981Z,98086.38
2022-09-30T14:08:12.322Z,98084.88
2022-09-30T14:11:07.200Z,98088.22
2022-09-30T14:13:51.029Z,98091.81
2022-09-30T14:16:44.834Z,98093.03
2022-09-30T14:19:23.959Z,98093.09
2022-09-30T14:21:52.259Z,98095.22
2022-09-30T14:24:27.886Z,98086.09
2022-09-30T14:27:31.650Z,98083.56
2022-09-30T14:30:13.372Z,98095.63
2022-09-30T14:33:10.640Z,98085.56
2022-09-30T14:35:41.536Z,98093.25
2022-09-30T14:38:17.852Z,98101.41
2022-09-30T14:40:54.578Z,98094.31
2022-09-30T14:43:37.823Z,98084.47
2022-09-30T14:46:26.652Z,98092.78
2022-09-30T14:48:56.658Z,98090.53
2022-09-30T14:51:24.070Z,98087.25
2022-09-30T14:53:57.538Z,98082.91
2022-09-30T14:56:35.244Z,98083.22
2022-09-30T14:59:17.643Z,98080.63
2022-09-30T15:01:45.824Z,98078.41
2022-09-30T15:04:16.699Z,98077.75
2022-09-30T15:06:47.576Z,98085.13
2022-09-30T15:09:26.911Z,98084.13
2022-09-30T15:11:53.569Z,98081.91
2022-09-30T15:14:23.643Z,98091.09
2022-09-30T15:16:53.102Z,98091.72
2022-09-30T15:19:29.766Z,98088.44
2022-09-30T15:22:02.305Z,98103.91
2022-09-30T15:24:31.436Z,98098.28
2022-09-30T15:27:00.029Z,98109.78
2022-09-30T15:29:26.867Z,98104.50
2022-09-30T15:32:00.207Z,98107.84
2022-09-30T15:34:28.697Z,98114.63
2022-09-30T15:37:06.438Z,98108.19
2022-09-30T15:40:00.487Z,98115.84
2022-09-30T15:42:36.039Z,98111.13
2022-09-30T15:45:24.545Z,98119.69
2022-09-30T15:47:57.984Z,98123.56
2022-09-30T15:50:45.615Z,98119.19
2022-09-30T15:53:25.510Z,98119.78
2022-09-30T15:55:55.476Z,98119.56
2022-09-30T15:58:38.003Z,98119.41
2022-09-30T16:01:33.117Z,98116.47
2022-09-30T16:04:09.409Z,98116.28
2022-09-30T16:06:41.920Z,98113.66
2022-09-30T16:09:20.922Z,98120.16
2022-09-30T16:12:08.809Z,98115.47
2022-09-30T16:14:43.049Z,98129.78
2022-09-30T16:17:21.515Z,98128.72
2022-09-30T16:19:52.256Z,98125.00
2022-09-30T16:22:35.274Z,98124.44
2022-09-30T16:25:28.640Z,98121.88
2022-09-30T16:28:09.093Z,98129.41
2022-09-30T16:30:38.746Z,98132.94
